Time;durP1;ratioP1;P1;durP2;ratioP2;P2;SDS_P1;SDS_P2;PMS_P1;PMS_P2;Temp;Humidity;BMP_temperature;BMP_pressure;BME280_temperature;BME280_humidity;BME280_pressure;Samples;Min_cycle;Max_cycle;Signal;HPM_P1;HPM_P2
2023/12/15 00:00:24;;;;;;;22.98;12.38;;;;;;;4.59;100.00;102524.84;1014507;29;20304;-57
2023/12/15 00:00:56;;;;;;;15.98;11.80;;;;;;;4.58;100.00;102523.19;1014474;29;20420;-58
2023/12/15 00:01:27;;;;;;;17.90;12.05;;;;;;;4.59;100.00;102524.84;1014651;29;20648;-58
2023/12/15 00:01:59;;;;;;;18.45;11.50;;;;;;;4.53;100.00;102520.13;1014565;29;20390;-57
2023/12/15 00:02:30;;;;;;;17.55;11.25;;;;;;;4.56;100.00;102530.41;1014460;29;20299;-57
2023/12/15 00:03:02;;;;;;;16.80;11.00;;;;;;;4.53;100.00;102530.69;1014151;29;20300;-57
2023/12/15 00:03:34;;;;;;;19.27;12.70;;;;;;;4.54;100.00;102529.72;1015007;29;20620;-58
2023/12/15 00:04:05;;;;;;;16.70;11.40;;;;;;;4.51;100.00;102527.34;1014467;29;20308;-57
2023/12/15 00:04:37;;;;;;;18.02;12.32;;;;;;;4.52;100.00;102531.66;1014935;29;20300;-58
2023/12/15 00:05:09;;;;;;;19.70;11.57;;;;;;;4.54;100.00;102527.06;1014499;29;20783;-58
2023/12/15 00:05:41;;;;;;;22.55;11.65;;;;;;;4.57;100.00;102536.53;1014565;29;20319;-58
2023/12/15 00:06:13;;;;;;;21.80;12.40;;;;;;;4.57;100.00;102532.06;1014642;29;20315;-57
2023/12/15 00:06:44;;;;;;;22.38;11.52;;;;;;;4.62;100.00;102527.22;1014769;29;20665;-58
2023/12/15 00:07:16;;;;;;;17.58;11.15;;;;;;;4.54;100.00;102537.63;1015050;29;20296;-57
2023/12/15 00:07:48;;;;;;;17.83;11.70;;;;;;;4.58;100.00;102532.91;1014832;29;20292;-58
2023/12/15 00:08:19;;;;;;;16.88;11.27;;;;;;;4.60;100.00;102539.72;1014585;29;20399;-58
2023/12/15 00:08:51;;;;;;;28.77;14.93;;;;;;;4.63;100.00;102535.97;1014515;29;20803;-58
2023/12/15 00:09:23;;;;;;;17.65;12.02;;;;;;;4.59;100.00;102529.31;1014541;29;20396;-58
2023/12/15 00:09:55;;;;;;;21.58;11.93;;;;;;;4.67;100.00;102531.28;1014697;29;20319;-57
2023/12/15 00:10:26;;;;;;;20.08;12.75;;;;;;;4.68;100.00;102532.94;1014529;29;20300;-57
2023/12/15 00:10:59;;;;;;;20.38;11.70;;;;;;;4.61;100.00;102544.03;1015102;29;20307;-58
2023/12/15 00:11:31;;;;;;;17.48;11.55;;;;;;;4.59;100.00;102534.56;1014960;29;20451;-58
2023/12/15 00:12:02;;;;;;;22.95;12.43;;;;;;;4.60;100.00;102536.25;1014198;29;20304;-58
2023/12/15 00:12:34;;;;;;;17.95;11.45;;;;;;;4.60;100.00;102534.44;1014744;29;20853;-58
2023/12/15 00:13:06;;;;;;;17.95;11.88;;;;;;;4.61;100.00;102536.09;1014679;29;20327;-58
2023/12/15 00:13:37;;;;;;;16.98;11.30;;;;;;;4.60;100.00;102537.09;1014392;29;20318;-58
2023/12/15 00:14:09;;;;;;;23.27;12.88;;;;;;;4.60;100.00;102531.81;1014946;29;20841;-57
2023/12/15 00:14:41;;;;;;;17.50;11.93;;;;;;;4.61;100.00;102533.47;1015105;29;20304;-57
2023/12/15 00:15:13;;;;;;;19.45;11.00;;;;;;;4.60;100.00;102536.25;1015304;29;20323;-58
2023/12/15 00:15:44;;;;;;;17.08;12.05;;;;;;;4.72;100.00;102539.63;1013218;29;20323;-57
2023/12/15 00:16:16;;;;;;;16.63;11.52;;;;;;;4.65;100.00;102534.88;1014928;29;20307;-58
2023/12/15 00:16:47;;;;;;;18.40;12.10;;;;;;;4.65;100.00;102544.59;1014775;29;20308;-57
2023/12/15 00:17:19;;;;;;;17.45;10.55;;;;;;;4.65;100.00;102540.16;1015200;29;20304;-57
2023/12/15 00:17:51;;;;;;;23.90;10.93;;;;;;;4.60;100.00;102544.16;1014976;29;20315;-57
2023/12/15 00:18:23;;;;;;;24.40;12.52;;;;;;;4.60;100.00;102549.44;1014491;29;21035;-57
2023/12/15 00:18:54;;;;;;;15.68;11.35;;;;;;;4.59;100.00;102548.59;1015064;29;20327;-58
2023/12/15 00:19:26;;;;;;;19.45;11.40;;;;;;;4.62;100.00;102550.13;1015065;29;20846;-58
2023/12/15 00:19:58;;;;;;;19.98;11.50;;;;;;;4.62;100.00;102550.97;1011215;29;20305;-58
2023/12/15 00:20:29;;;;;;;16.98;11.50;;;;;;;4.58;100.00;102549.59;1014365;29;20343;-58
2023/12/15 00:21:01;;;;;;;22.13;12.25;;;;;;;4.68;100.00;102548.78;1014698;29;20358;-58
2023/12/15 00:21:33;;;;;;;21.20;11.30;;;;;;;4.65;100.00;102550.69;1014337;29;20315;-58
2023/12/15 00:22:04;;;;;;;21.80;12.40;;;;;;;4.68;100.00;102554.06;1013325;29;20304;-58
2023/12/15 00:22:36;;;;;;;18.10;12.25;;;;;;;4.68;100.00;102554.91;1015505;29;20783;-58
2023/12/15 00:23:07;;;;;;;19.45;13.73;;;;;;;4.71;100.00;102553.78;1013031;29;20300;-58
2023/12/15 00:23:39;;;;;;;19.02;14.38;;;;;;;4.68;100.00;102556.72;1014666;29;20692;-57
2023/12/15 00:24:11;;;;;;;21.30;12.68;;;;;;;4.75;100.00;102553.38;1014501;29;20583;-58
2023/12/15 00:24:42;;;;;;;19.20;14.30;;;;;;;4.77;100.00;102558.53;1014975;29;20306;-57
2023/12/15 00:25:14;;;;;;;19.55;12.90;;;;;;;4.75;100.00;102553.38;1014833;29;20323;-57
2023/12/15 00:25:46;;;;;;;20.90;13.55;;;;;;;4.77;100.00;102558.53;1014883;29;20304;-58
2023/12/15 00:26:18;;;;;;;20.80;14.95;;;;;;;4.75;100.00;102557.81;1017662;29;20295;-58
2023/12/15 00:26:49;;;;;;;27.00;13.82;;;;;;;4.78;100.00;102554.91;1017064;29;20582;-58
2023/12/15 00:27:21;;;;;;;21.77;14.75;;;;;;;4.78;100.00;102550.47;1014638;29;20402;-59
2023/12/15 00:27:52;;;;;;;19.65;13.93;;;;;;;4.76;100.00;102562.13;1014676;29;20304;-57
2023/12/15 00:28:24;;;;;;;19.70;13.95;;;;;;;4.77;100.00;102558.53;1013495;29;20577;-57
2023/12/15 00:28:56;;;;;;;24.30;14.90;;;;;;;4.75;100.00;102561.31;1014546;29;20322;-57
2023/12/15 00:29:27;;;;;;;24.60;16.08;;;;;;;4.77;100.00;102558.53;1014764;29;20769;-58
2023/12/15 00:29:59;;;;;;;21.77;15.02;;;;;;;4.76;100.00;102562.13;1015049;29;20342;-58
2023/12/15 00:30:31;;;;;;;20.70;13.75;;;;;;;4.76;100.00;102559.50;1015159;29;20420;-57
2023/12/15 00:31:02;;;;;;;17.95;13.80;;;;;;;4.75;100.00;102557.81;1015093;29;20315;-57
2023/12/15 00:31:35;;;;;;;20.92;13.63;;;;;;;4.74;100.00;102564.06;1014856;29;20304;-57
2023/12/15 00:32:06;;;;;;;21.02;15.90;;;;;;;4.77;100.00;102558.53;1014966;29;20314;-58
2023/12/15 00:32:38;;;;;;;21.30;14.50;;;;;;;4.77;100.00;102559.34;1014836;29;20343;-57
2023/12/15 00:33:10;;;;;;;18.40;14.48;;;;;;;4.78;100.00;102566.31;1014914;29;20291;-57
2023/12/15 00:33:42;;;;;;;20.30;14.68;;;;;;;4.77;100.00;102566.44;1015433;29;20300;-57
2023/12/15 00:34:13;;;;;;;25.42;16.85;;;;;;;4.81;100.00;102565.19;1015388;29;20296;-58
2023/12/15 00:34:45;;;;;;;19.20;15.07;;;;;;;4.75;100.00;102568.38;1015084;29;20328;-57
2023/12/15 00:35:17;;;;;;;18.38;13.35;;;;;;;4.73;100.00;102572.97;1014797;29;20311;-58
2023/12/15 00:35:48;;;;;;;20.42;13.68;;;;;;;4.79;100.00;102569.78;1014709;29;20303;-58
2023/12/15 00:36:20;;;;;;;22.42;14.95;;;;;;;4.77;100.00;102571.72;1014835;29;20971;-57
2023/12/15 00:36:52;;;;;;;20.60;15.27;;;;;;;4.81;100.00;102571.31;1014412;29;20316;-57
2023/12/15 00:37:23;;;;;;;19.58;13.98;;;;;;;4.82;100.00;102572.16;1015027;29;20763;-57
2023/12/15 00:37:55;;;;;;;21.13;14.40;;;;;;;4.81;100.00;102573.13;1012669;29;20680;-57
2023/12/15 00:38:26;;;;;;;21.40;15.25;;;;;;;4.79;100.00;102572.41;1012913;29;20347;-57
2023/12/15 00:38:59;;;;;;;20.20;14.27;;;;;;;4.73;100.00;102573.81;1014405;29;20803;-58
2023/12/15 00:39:31;;;;;;;18.73;14.52;;;;;;;4.79;100.00;102567.13;1014642;29;20315;-57
2023/12/15 00:40:03;;;;;;;19.27;15.55;;;;;;;4.82;100.00;102572.97;1014494;29;20671;-57
2023/12/15 00:40:34;;;;;;;21.20;14.57;;;;;;;4.89;100.00;102568.81;1014642;29;20480;-57
2023/12/15 00:41:06;;;;;;;20.33;14.63;;;;;;;4.86;100.00;102577.00;1014631;29;20304;-57
2023/12/15 00:41:38;;;;;;;21.38;14.75;;;;;;;4.85;100.00;102571.88;1015326;29;20304;-57
2023/12/15 00:42:09;;;;;;;23.67;15.50;;;;;;;4.85;100.00;102567.41;1015087;29;20797;-57
2023/12/15 00:42:41;;;;;;;19.15;14.77;;;;;;;4.86;100.00;102569.09;1014718;29;20335;-58
2023/12/15 00:43:14;;;;;;;20.05;14.70;;;;;;;4.87;100.00;102567.28;1014989;29;20308;-55
2023/12/15 00:43:45;;;;;;;19.17;14.75;;;;;;;4.96;100.00;102569.13;1015059;29;20300;-57
2023/12/15 00:44:17;;;;;;;17.58;14.75;;;;;;;4.88;100.00;102576.88;1014759;29;20311;-56
2023/12/15 00:44:48;;;;;;;22.02;16.13;;;;;;;4.86;100.00;102573.53;1014964;29;20344;-58
2023/12/15 00:45:20;;;;;;;26.23;15.90;;;;;;;4.82;100.00;102578.25;1015287;29;20300;-58
2023/12/15 00:45:52;;;;;;;21.52;14.93;;;;;;;4.87;100.00;102577.84;1013153;29;20420;-58
2023/12/15 00:46:23;;;;;;;22.58;14.32;;;;;;;4.81;100.00;102581.88;1014981;29;20363;-58
2023/12/15 00:46:55;;;;;;;24.33;16.27;;;;;;;4.85;100.00;102585.06;1014862;29;21035;-58
2023/12/15 00:47:27;;;;;;;21.83;14.88;;;;;;;4.82;100.00;102572.16;1014652;29;20371;-57
2023/12/15 00:47:59;;;;;;;24.83;15.88;;;;;;;4.85;100.00;102580.63;1015249;29;20659;-58
2023/12/15 00:48:31;;;;;;;21.33;15.10;;;;;;;4.92;100.00;102581.75;1014869;29;20676;-58
2023/12/15 00:49:03;;;;;;;23.73;16.42;;;;;;;4.90;100.00;102582.84;1013375;29;20337;-58
2023/12/15 00:49:35;;;;;;;27.60;15.85;;;;;;;4.91;100.00;102576.59;1015122;29;20296;-58
2023/12/15 00:50:07;;;;;;;26.25;16.20;;;;;;;4.95;100.00;102588.59;1014825;29;20307;-57
2023/12/15 00:50:38;;;;;;;24.98;14.15;;;;;;;4.96;100.00;102580.53;1014289;29;20339;-57
2023/12/15 00:51:10;;;;;;;21.25;15.70;;;;;;;4.90;100.00;102581.03;1010654;29;20339;-58
2023/12/15 00:51:42;;;;;;;23.98;16.85;;;;;;;4.90;100.00;102572.28;1011326;29;20319;-57
2023/12/15 00:52:13;;;;;;;21.00;14.85;;;;;;;4.96;100.00;102579.69;1014414;29;20318;-57
2023/12/15 00:52:45;;;;;;;23.60;15.68;;;;;;;4.97;100.00;102576.06;1010430;29;20655;-55
2023/12/15 00:53:16;;;;;;;21.40;15.25;;;;;;;4.91;100.00;102571.31;1011072;29;20312;-57
2023/12/15 00:53:48;;;;;;;22.42;16.63;;;;;;;4.91;100.00;102568.69;1013224;29;20910;-57
2023/12/15 00:54:20;;;;;;;22.70;16.33;;;;;;;4.91;100.00;102572.16;1010661;29;20319;-57
2023/12/15 00:54:51;;;;;;;26.83;17.95;;;;;;;4.95;100.00;102567.47;1014360;29;20322;-57
2023/12/15 00:55:23;;;;;;;26.60;15.93;;;;;;;4.92;100.00;102571.19;1014316;29;20308;-57
2023/12/15 00:55:54;;;;;;;21.35;15.93;;;;;;;4.92;100.00;102570.34;1015013;29;20900;-57
2023/12/15 00:56:26;;;;;;;22.58;16.90;;;;;;;4.93;100.00;102572.88;1014553;29;20448;-57
2023/12/15 00:56:58;;;;;;;18.42;15.80;;;;;;;4.96;100.00;102574.41;1014953;29;20292;-57
2023/12/15 00:57:29;;;;;;;24.15;17.45;;;;;;;5.01;100.00;102579.28;1013011;29;20478;-58
2023/12/15 00:58:01;;;;;;;20.48;15.65;;;;;;;4.97;100.00;102576.06;1014790;29;20315;-58
2023/12/15 00:58:33;;;;;;;20.73;15.63;;;;;;;5.04;100.00;102576.34;1014842;29;20311;-58
2023/12/15 00:59:04;;;;;;;20.98;15.38;;;;;;;4.95;100.00;102583.31;1015259;29;20710;-57
2023/12/15 00:59:36;;;;;;;21.15;16.65;;;;;;;5.05;100.00;102576.22;1016433;29;20324;-58
2023/12/15 01:00:08;;;;;;;22.52;14.73;;;;;;;5.00;100.00;102581.09;1018425;29;20734;-57
2023/12/15 01:00:40;;;;;;;23.73;15.98;;;;;;;5.04;100.00;102571.91;1014479;29;20783;-57
2023/12/15 01:01:12;;;;;;;20.35;16.00;;;;;;;5.02;100.00;102583.59;1013103;29;20304;-58
2023/12/15 01:01:44;;;;;;;22.85;15.85;;;;;;;5.05;100.00;102578.03;1014217;29;20828;-56
2023/12/15 01:02:15;;;;;;;19.80;15.18;;;;;;;4.95;100.00;102576.22;1015765;29;20663;-57
2023/12/15 01:02:47;;;;;;;29.08;17.42;;;;;;;4.93;100.00;102579.94;1015603;29;20798;-57
2023/12/15 01:03:19;;;;;;;20.40;15.75;;;;;;;5.03;100.00;102582.63;1015655;29;20308;-57
2023/12/15 01:03:51;;;;;;;24.23;17.35;;;;;;;5.02;100.00;102579.13;1015550;29;20303;-57
2023/12/15 01:04:22;;;;;;;22.80;16.27;;;;;;;5.02;100.00;102579.13;1015913;29;20295;-58
2023/12/15 01:04:54;;;;;;;26.55;17.25;;;;;;;4.96;100.00;102579.69;1019445;29;20310;-57
2023/12/15 01:05:25;;;;;;;27.52;17.42;;;;;;;5.01;100.00;102577.47;1019053;29;20303;-58
2023/12/15 01:05:57;;;;;;;19.27;16.25;;;;;;;5.03;100.00;102574.69;1019232;29;20300;-57
2023/12/15 01:06:30;;;;;;;23.83;17.23;;;;;;;5.01;100.00;102576.63;1018195;29;20311;-58
2023/12/15 01:07:02;;;;;;;25.65;17.27;;;;;;;5.04;100.00;102577.19;1014682;29;20304;-58
2023/12/15 01:07:34;;;;;;;26.20;16.77;;;;;;;5.04;100.00;102577.19;1015664;29;20459;-57
2023/12/15 01:08:06;;;;;;;27.48;17.02;;;;;;;5.05;100.00;102573.56;1015656;29;20356;-58
2023/12/15 01:08:37;;;;;;;20.35;15.77;;;;;;;5.04;100.00;102582.47;1015801;29;20743;-57
2023/12/15 01:09:09;;;;;;;23.00;15.77;;;;;;;5.05;100.00;102578.84;1013737;29;20304;-57
2023/12/15 01:09:41;;;;;;;26.33;17.52;;;;;;;5.05;100.00;102573.56;1015667;29;20304;-58
2023/12/15 01:10:12;;;;;;;23.80;16.73;;;;;;;5.02;100.00;102575.66;1015428;29;20700;-57
2023/12/15 01:10:44;;;;;;;20.88;17.83;;;;;;;5.06;100.00;102572.59;1015501;29;20366;-57
2023/12/15 01:11:16;;;;;;;24.65;16.45;;;;;;;5.04;100.00;102576.34;1015677;29;20629;-57
2023/12/15 01:11:48;;;;;;;22.27;17.35;;;;;;;5.05;100.00;102584.13;1014937;29;20304;-57
2023/12/15 01:12:19;;;;;;;18.92;16.77;;;;;;;5.09;100.00;102587.34;1015977;29;20307;-57
2023/12/15 01:12:51;;;;;;;22.30;16.63;;;;;;;5.12;100.00;102582.63;1015958;29;20625;-58
2023/12/15 01:13:23;;;;;;;20.88;17.70;;;;;;;5.15;100.00;102590.25;1015374;29;20308;-56
2023/12/15 01:13:54;;;;;;;23.98;18.63;;;;;;;5.14;100.00;102582.47;1015556;29;20304;-58
2023/12/15 01:14:26;;;;;;;26.92;16.17;;;;;;;5.15;100.00;102584.97;1015457;29;20312;-57
2023/12/15 01:14:58;;;;;;;22.75;18.23;;;;;;;5.14;100.00;102591.22;1015492;29;20312;-57
2023/12/15 01:15:29;;;;;;;25.42;18.95;;;;;;;5.12;100.00;102587.06;1014234;29;20293;-58
2023/12/15 01:16:04;;;;;;;18.17;15.80;;;;;;;5.21;100.00;102581.81;1015516;29;20708;-57
2023/12/15 01:16:44;;;;;;;21.77;17.35;;;;;;;5.10;100.00;102589.84;1015019;29;20451;-58
2023/12/15 01:17:15;;;;;;;22.08;16.15;;;;;;;5.10;100.00;102586.38;1015365;29;20306;-56
2023/12/15 01:17:47;;;;;;;29.33;18.92;;;;;;;5.11;100.00;102588.88;1015544;29;20314;-57
2023/12/15 01:18:19;;;;;;;27.45;18.38;;;;;;;5.10;100.00;102587.19;1015472;29;20359;-57
2023/12/15 01:18:51;;;;;;;22.98;17.42;;;;;;;5.20;100.00;102598.63;1015756;29;20300;-58
2023/12/15 01:19:23;;;;;;;20.60;16.88;;;;;;;5.14;100.00;102593.88;1013853;29;20391;-58
2023/12/15 01:19:54;;;;;;;23.23;17.65;;;;;;;5.09;100.00;102590.81;1015483;29;20817;-57
2023/12/15 01:20:26;;;;;;;19.83;16.63;;;;;;;5.10;100.00;102595.13;1015496;29;20311;-57
2023/12/15 01:20:58;;;;;;;25.00;18.65;;;;;;;5.13;100.00;102601.94;1015660;29;20295;-57
2023/12/15 01:21:29;;;;;;;26.38;18.65;;;;;;;5.11;100.00;102602.06;1015074;29;20347;-57
2023/12/15 01:22:01;;;;;;;25.85;18.88;;;;;;;5.11;100.00;102601.25;1015223;29;20288;-56
2023/12/15 01:22:32;;;;;;;22.30;18.30;;;;;;;5.07;100.00;102603.31;1015767;29;20410;-57
2023/12/15 01:23:05;;;;;;;24.17;18.80;;;;;;;5.14;100.00;102603.59;1015547;29;20391;-57
2023/12/15 01:23:37;;;;;;;22.13;17.52;;;;;;;5.08;100.00;102605.00;1014059;29;20694;-57
2023/12/15 01:24:10;;;;;;;28.40;18.48;;;;;;;5.10;100.00;102602.22;1015139;29;20295;-57
2023/12/15 01:24:42;;;;;;;23.52;17.95;;;;;;;5.11;100.00;102601.25;1015676;29;20636;-57
2023/12/15 01:25:13;;;;;;;24.70;18.88;;;;;;;5.07;100.00;102605.97;1015450;29;20311;-57
2023/12/15 01:25:45;;;;;;;26.13;18.48;;;;;;;5.08;100.00;102602.34;1015540;29;20296;-57
2023/12/15 01:26:18;;;;;;;21.85;17.27;;;;;;;5.07;100.00;102603.31;1015678;29;20695;-58
2023/12/15 01:26:49;;;;;;;26.10;19.25;;;;;;;5.11;100.00;102610.00;1015429;29;20377;-57
2023/12/15 01:27:21;;;;;;;30.95;19.92;;;;;;;5.10;100.00;102603.03;1015889;29;20303;-57
2023/12/15 01:27:53;;;;;;;30.52;19.92;;;;;;;5.15;100.00;102608.75;1013900;29;20772;-57
2023/12/15 01:28:24;;;;;;;25.77;20.02;;;;;;;5.15;100.00;102606.09;1015508;29;20335;-57
2023/12/15 01:28:56;;;;;;;23.83;19.25;;;;;;;5.16;100.00;102613.06;1014847;29;20769;-60
2023/12/15 01:29:27;;;;;;;30.05;19.27;;;;;;;5.16;100.00;102609.59;1011289;29;20312;-57
2023/12/15 01:29:59;;;;;;;23.75;20.10;;;;;;;5.14;100.00;102608.88;1015006;29;20320;-57
2023/12/15 01:30:31;;;;;;;24.42;19.60;;;;;;;5.15;100.00;102613.19;1015422;29;20306;-57
2023/12/15 01:31:02;;;;;;;30.00;19.35;;;;;;;5.14;100.00;102622.09;1015660;29;20853;-57
2023/12/15 01:31:34;;;;;;;26.63;18.45;;;;;;;5.10;100.00;102613.63;1016342;29;20332;-58
2023/12/15 01:32:06;;;;;;;25.38;19.20;;;;;;;5.16;100.00;102613.06;1015646;29;20351;-56
2023/12/15 01:32:38;;;;;;;27.00;20.85;;;;;;;5.15;100.00;102614.03;1015303;29;20303;-57
2023/12/15 01:33:09;;;;;;;26.80;19.98;;;;;;;5.14;100.00;102615.00;1015444;29;20336;-57
2023/12/15 01:33:56;;;;;;;25.58;19.75;;;;;;;5.14;100.00;102615.00;1016466;29;20311;-58
2023/12/15 01:34:48;;;;;;;26.15;18.27;;;;;;;5.10;100.00;102618.06;1011355;29;20872;-56
2023/12/15 01:35:19;;;;;;;26.48;18.27;;;;;;;5.17;100.00;102613.91;1011203;29;20304;-57
2023/12/15 01:35:51;;;;;;;26.77;18.90;;;;;;;5.18;100.00;102620.84;1009169;29;20445;-58
2023/12/15 01:36:22;;;;;;;23.15;18.73;;;;;;;5.12;100.00;102616.94;1012164;29;20320;-57
2023/12/15 01:36:54;;;;;;;26.50;19.33;;;;;;;5.14;100.00;102628.22;1015521;29;20299;-58
2023/12/15 01:37:26;;;;;;;32.33;20.23;;;;;;;5.14;100.00;102624.72;1015524;29;20331;-57
2023/12/15 01:37:57;;;;;;;27.75;19.45;;;;;;;5.19;100.00;102626.00;1012128;29;20308;-56
2023/12/15 01:38:29;;;;;;;33.30;20.75;;;;;;;5.15;100.00;102621.97;1011266;29;20379;-57
2023/12/15 01:39:01;;;;;;;27.38;20.05;;;;;;;5.15;100.00;102629.88;1014939;29;20428;-57
2023/12/15 01:39:32;;;;;;;27.63;19.63;;;;;;;5.18;100.00;102631.41;1013079;29;20311;-58
2023/12/15 01:40:04;;;;;;;25.65;21.38;;;;;;;5.12;100.00;102638.06;1015155;29;20300;-58
2023/12/15 01:40:36;;;;;;;32.42;21.35;;;;;;;5.14;100.00;102630.84;1015553;29;20300;-58
2023/12/15 01:41:08;;;;;;;29.00;20.88;;;;;;;5.32;100.00;102628.38;1015386;29;20308;-57
2023/12/15 01:41:39;;;;;;;28.17;20.25;;;;;;;5.25;100.00;102636.03;1015308;29;20323;-58
2023/12/15 01:42:11;;;;;;;29.83;20.73;;;;;;;5.18;100.00;102631.41;1015202;29;20452;-57
2023/12/15 01:42:42;;;;;;;30.08;21.45;;;;;;;5.21;100.00;102632.00;1015100;29;20815;-57
2023/12/15 01:43:14;;;;;;;32.70;20.80;;;;;;;5.15;100.00;102632.53;1015446;29;20304;-55
2023/12/15 01:43:46;;;;;;;26.50;18.95;;;;;;;5.15;100.00;102636.97;1015105;29;20308;-57
2023/12/15 01:44:17;;;;;;;30.17;21.42;;;;;;;5.17;100.00;102629.75;1015576;29;20663;-57
2023/12/15 01:44:49;;;;;;;31.38;21.17;;;;;;;5.08;100.00;102631.41;1015251;29;20304;-57
2023/12/15 01:45:20;;;;;;;28.08;21.08;;;;;;;5.14;100.00;102635.31;1015552;29;20308;-58
2023/12/15 01:45:52;;;;;;;28.50;20.95;;;;;;;5.13;100.00;102629.19;1015408;29;20304;-57
2023/12/15 01:46:35;;;;;;;31.77;21.55;;;;;;;5.16;100.00;102639.47;1015289;29;20308;-57
2023/12/15 01:47:13;;;;;;;31.08;21.55;;;;;;;5.06;100.00;102641.28;1015538;29;20679;-57
2023/12/15 01:47:45;;;;;;;29.15;20.27;;;;;;;5.12;100.00;102638.06;1015429;29;20315;-57
2023/12/15 01:48:17;;;;;;;29.92;20.45;;;;;;;5.12;100.00;102643.38;1015282;29;20311;-57
2023/12/15 01:48:49;;;;;;;27.23;22.25;;;;;;;5.10;100.00;102634.75;1015544;29;20324;-58
2023/12/15 01:49:21;;;;;;;30.95;21.60;;;;;;;5.12;100.00;102643.38;1018984;29;20330;-58
2023/12/15 01:49:53;;;;;;;33.47;22.67;;;;;;;5.10;100.00;102633.91;1018810;29;20945;-58
2023/12/15 01:50:25;;;;;;;30.67;21.75;;;;;;;5.12;100.00;102643.38;1018748;29;20311;-58
2023/12/15 01:50:57;;;;;;;31.70;20.17;;;;;;;5.17;100.00;102638.50;1016859;29;20304;-58
2023/12/15 01:51:28;;;;;;;32.55;20.42;;;;;;;5.18;100.00;102636.69;1016543;29;20296;-57
2023/12/15 01:52:00;;;;;;;29.10;22.27;;;;;;;5.19;100.00;102638.38;1019092;29;20303;-57
2023/12/15 01:52:32;;;;;;;26.08;20.98;;;;;;;5.11;100.00;102636.41;1014956;29;20356;-57
2023/12/15 01:53:03;;;;;;;27.58;20.88;;;;;;;5.12;100.00;102637.25;1014334;29;20653;-57
2023/12/15 01:53:35;;;;;;;27.58;21.17;;;;;;;5.15;100.00;102632.53;1014793;29;20795;-57
2023/12/15 01:54:07;;;;;;;32.17;21.30;;;;;;;5.15;100.00;102637.81;1015053;29;20787;-58
2023/12/15 01:54:38;;;;;;;36.40;22.48;;;;;;;5.15;100.00;102637.81;1015538;29;20703;-57
2023/12/15 01:55:10;;;;;;;28.73;22.05;;;;;;;5.14;100.00;102641.41;1013474;29;20305;-57
2023/12/15 01:55:41;;;;;;;26.17;21.55;;;;;;;5.12;100.00;102635.44;1015478;29;20659;-58
2023/12/15 01:56:13;;;;;;;32.30;22.17;;;;;;;5.14;100.00;102641.41;1015426;29;20303;-58
2023/12/15 01:56:45;;;;;;;28.90;20.90;;;;;;;5.15;100.00;102640.44;1015361;29;20300;-57
2023/12/15 01:57:17;;;;;;;31.88;21.45;;;;;;;5.18;100.00;102637.53;1015535;29;20395;-57
2023/12/15 01:57:49;;;;;;;26.15;21.13;;;;;;;5.16;100.00;102644.75;1016578;29;20841;-57
2023/12/15 01:58:20;;;;;;;34.58;22.98;;;;;;;5.18;100.00;102642.81;1015380;29;20296;-57
2023/12/15 01:58:52;;;;;;;31.58;22.05;;;;;;;5.19;100.00;102641.84;1017318;29;20307;-57
2023/12/15 01:59:24;;;;;;;39.17;24.00;;;;;;;5.16;100.00;102647.41;1018033;29;20310;-57
2023/12/15 01:59:56;;;;;;;30.25;24.00;;;;;;;5.18;100.00;102642.81;1014230;29;20433;-57
2023/12/15 02:00:27;;;;;;;26.90;20.88;;;;;;;5.15;100.00;102644.91;1007517;29;20316;-57
2023/12/15 02:00:59;;;;;;;30.40;22.60;;;;;;;5.16;100.00;102642.13;1007225;29;20312;-57
2023/12/15 02:01:31;;;;;;;31.17;23.13;;;;;;;5.17;100.00;102641.16;1007126;29;20301;-57
2023/12/15 02:02:02;;;;;;;26.95;21.10;;;;;;;5.18;100.00;102645.44;1011307;29;20312;-57
2023/12/15 02:02:34;;;;;;;38.28;23.20;;;;;;;5.17;100.00;102642.94;1015781;29;20299;-57
2023/12/15 02:03:06;;;;;;;36.70;22.73;;;;;;;5.20;100.00;102640.03;1015101;29;20699;-56
2023/12/15 02:03:38;;;;;;;31.85;21.83;;;;;;;5.23;100.00;102648.53;1015475;29;20314;-57
2023/12/15 02:04:10;;;;;;;31.80;21.40;;;;;;;5.25;100.00;102646.59;1015141;29;20307;-57
2023/12/15 02:04:41;;;;;;;30.60;23.00;;;;;;;5.22;100.00;102646.03;1015272;29;20671;-57
2023/12/15 02:05:13;;;;;;;32.78;23.60;;;;;;;5.18;100.00;102652.53;1015368;29;20530;-57
2023/12/15 02:05:45;;;;;;;34.25;23.23;;;;;;;5.21;100.00;102647.84;1015383;29;20300;-58
2023/12/15 02:06:17;;;;;;;26.30;21.67;;;;;;;5.24;100.00;102652.84;1015581;29;20299;-58
2023/12/15 02:06:48;;;;;;;35.28;23.42;;;;;;;5.24;100.00;102646.75;1015870;29;20296;-58
2023/12/15 02:07:20;;;;;;;32.22;22.65;;;;;;;5.25;100.00;102643.97;1015387;29;20308;-57
2023/12/15 02:07:52;;;;;;;33.55;21.70;;;;;;;5.26;100.00;102650.06;1015188;29;20312;-56
2023/12/15 02:08:23;;;;;;;31.70;21.10;;;;;;;5.27;100.00;102642.00;1015475;29;20451;-57
2023/12/15 02:08:55;;;;;;;39.38;23.40;;;;;;;5.21;100.00;102647.84;1015286;29;20679;-57
2023/12/15 02:09:26;;;;;;;30.67;22.23;;;;;;;5.24;100.00;102642.28;1015022;29;20300;-57
2023/12/15 02:09:58;;;;;;;36.08;22.73;;;;;;;5.23;100.00;102640.63;1015772;29;20304;-57
2023/12/15 02:10:30;;;;;;;38.90;23.35;;;;;;;5.24;100.00;102652.84;1013589;29;20304;-57
2023/12/15 02:11:01;;;;;;;29.73;22.38;;;;;;;5.20;100.00;102645.31;1015371;29;20304;-57
2023/12/15 02:11:33;;;;;;;30.35;21.13;;;;;;;5.19;100.00;102641.00;1015501;29;20799;-57
2023/12/15 02:12:17;;;;;;;35.92;21.88;;;;;;;5.24;100.00;102650.22;1015805;29;20838;-58
2023/12/15 02:13:23;;;;;;;31.10;19.33;;;;;;;5.21;100.00;102647.84;1016155;29;20303;-57
2023/12/15 02:13:55;;;;;;;27.45;19.83;;;;;;;5.26;100.00;102648.28;1017112;29;20307;-57
2023/12/15 02:14:26;;;;;;;29.15;19.88;;;;;;;5.28;100.00;102656.88;1017912;29;20303;-57
2023/12/15 02:14:58;;;;;;;34.72;22.15;;;;;;;5.26;100.00;102655.38;1016804;29;20300;-57
2023/12/15 02:15:30;;;;;;;28.65;20.05;;;;;;;5.20;100.00;102654.09;1018964;29;20314;-57
2023/12/15 02:16:01;;;;;;;30.77;21.70;;;;;;;5.25;100.00;102651.03;1017914;29;20299;-57
2023/12/15 02:16:34;;;;;;;32.97;22.30;;;;;;;5.23;100.00;102656.47;1013759;29;20297;-56
2023/12/15 02:17:06;;;;;;;31.95;21.88;;;;;;;5.19;100.00;102654.22;1015432;29;20322;-57
2023/12/15 02:17:38;;;;;;;37.30;21.38;;;;;;;5.20;100.00;102650.59;1015525;29;20295;-57
2023/12/15 02:18:11;;;;;;;32.90;22.75;;;;;;;5.19;100.00;102654.22;1014880;29;20931;-57
2023/12/15 02:18:43;;;;;;;38.72;23.52;;;;;;;5.19;100.00;102648.94;1015414;29;20304;-57
2023/12/15 02:19:14;;;;;;;36.45;23.00;;;;;;;5.20;100.00;102655.88;1015147;29;20395;-56
2023/12/15 02:19:46;;;;;;;32.45;22.30;;;;;;;5.22;100.00;102659.25;1015344;29;20699;-57
2023/12/15 02:20:18;;;;;;;36.72;25.20;;;;;;;5.20;100.00;102651.47;1015366;29;20300;-57
2023/12/15 02:20:49;;;;;;;30.58;22.85;;;;;;;5.20;100.00;102667.31;1014881;29;21627;-57
2023/12/15 02:21:21;;;;;;;36.65;24.05;;;;;;;5.16;100.00;102660.59;1015564;29;20296;-57
2023/12/15 02:21:53;;;;;;;35.70;25.10;;;;;;;5.18;100.00;102658.66;1015137;29;20317;-57
2023/12/15 02:22:26;;;;;;;38.28;23.17;;;;;;;5.19;100.00;102655.03;1015176;29;20838;-57
2023/12/15 02:22:59;;;;;;;41.28;25.13;;;;;;;5.20;100.00;102656.75;1015294;29;20304;-56
2023/12/15 02:23:31;;;;;;;36.10;24.15;;;;;;;5.25;100.00;102661.63;1015345;29;20381;-57
2023/12/15 02:24:03;;;;;;;36.30;23.42;;;;;;;5.24;100.00;102659.94;1015040;29;20335;-57
2023/12/15 02:24:34;;;;;;;34.47;23.67;;;;;;;5.23;100.00;102661.75;1014779;29;20300;-57
2023/12/15 02:25:06;;;;;;;41.05;24.63;;;;;;;5.19;100.00;102662.97;1014929;29;20858;-57
2023/12/15 02:25:38;;;;;;;39.90;24.13;;;;;;;5.20;100.00;102667.31;1015107;29;20319;-57
2023/12/15 02:26:09;;;;;;;33.60;25.90;;;;;;;5.21;100.00;102658.41;1015491;29;20296;-57